Time;durP1;ratioP1;P1;durP2;ratioP2;P2;SDS_P1;SDS_P2;PMS_P1;PMS_P2;Temp;Humidity;BMP_temperature;BMP_pressure;BME280_temperature;BME280_humidity;BME280_pressure;Samples;Min_cycle;Max_cycle;Signal;HPM_P1;HPM_P2
2024/01/19 00:08:33;;;;;;;1.98;0.90;;;;;;;16.48;44.20;100728.06;20840694;28;20064;-63
2024/01/19 00:18:35;;;;;;;1.52;0.88;;;;;;;16.48;44.01;100730.75;20833509;28;20049;-63
2024/01/19 00:28:37;;;;;;;1.75;0.80;;;;;;;16.44;43.94;100748.13;20861074;28;20110;-63
2024/01/19 00:38:38;;;;;;;1.70;0.82;;;;;;;16.42;43.68;100739.34;20816034;28;20052;-62
2024/01/19 00:48:40;;;;;;;2.13;1.00;;;;;;;16.43;43.60;100733.00;20963207;28;20102;-63
2024/01/19 00:58:44;;;;;;;1.50;0.88;;;;;;;16.40;43.33;100752.06;20857445;28;20052;-63
2024/01/19 01:08:46;;;;;;;1.20;0.80;;;;;;;16.40;43.39;100781.63;20849433;28;20045;-62
2024/01/19 01:18:48;;;;;;;1.23;0.60;;;;;;;16.35;43.19;100817.78;20847774;28;20049;-62
2024/01/19 01:28:50;;;;;;;1.70;1.00;;;;;;;16.31;43.29;100823.53;20842347;28;20049;-63
2024/01/19 01:38:52;;;;;;;1.00;0.73;;;;;;;16.34;43.21;100831.34;20864834;28;20077;-62
2024/01/19 01:48:54;;;;;;;1.25;0.73;;;;;;;16.35;43.21;100808.84;20829604;28;20485;-63
2024/01/19 01:58:56;;;;;;;1.85;0.95;;;;;;;16.35;43.05;100850.03;20810816;28;20055;-63
2024/01/19 02:08:58;;;;;;;1.30;0.75;;;;;;;16.38;42.95;100822.91;20843031;28;20549;-63
2024/01/19 02:19:00;;;;;;;0.88;0.60;;;;;;;16.42;43.03;100814.59;20845860;28;20409;-63
2024/01/19 02:29:02;;;;;;;1.05;0.65;;;;;;;16.39;43.08;100818.38;20820751;28;20049;-63
2024/01/19 02:39:05;;;;;;;0.88;0.70;;;;;;;16.39;42.90;100823.75;20838162;28;20049;-63
2024/01/19 02:49:06;;;;;;;1.23;0.52;;;;;;;16.34;42.92;100836.72;20830762;28;20052;-62
2024/01/19 02:59:08;;;;;;;1.10;0.73;;;;;;;16.22;42.71;100860.06;20824679;28;20056;-63
2024/01/19 03:09:10;;;;;;;0.85;0.40;;;;;;;16.23;42.74;100881.44;20831280;28;20509;-62
2024/01/19 03:19:14;;;;;;;0.65;0.65;;;;;;;16.22;42.67;100909.28;20839924;28;20123;-62
2024/01/19 03:29:15;;;;;;;0.82;0.50;;;;;;;16.22;42.57;100929.91;20816215;28;20056;-62
2024/01/19 03:39:18;;;;;;;0.80;0.57;;;;;;;16.20;42.93;100934.53;20829409;28;20524;-62
2024/01/19 03:49:20;;;;;;;1.33;0.50;;;;;;;16.24;42.69;100957.50;20845635;28;20083;-63
2024/01/19 03:59:21;;;;;;;1.25;0.60;;;;;;;16.29;42.57;100941.00;20860586;28;20049;-63
2024/01/19 04:09:23;;;;;;;0.63;0.30;;;;;;;16.24;42.76;100930.63;20850992;28;20054;-63
2024/01/19 04:19:25;;;;;;;1.10;0.60;;;;;;;16.23;42.62;100947.72;20856039;28;20501;-63
2024/01/19 04:29:27;;;;;;;0.73;0.30;;;;;;;16.24;42.80;100970.91;20868845;28;20488;-63
2024/01/19 04:39:28;;;;;;;0.43;0.30;;;;;;;16.24;42.61;100965.53;20823018;28;20417;-62
2024/01/19 04:49:30;;;;;;;1.13;0.50;;;;;;;16.23;42.67;100990.69;20873382;28;20461;-62
2024/01/19 04:59:32;;;;;;;0.77;0.35;;;;;;;16.23;42.31;101006.81;20875921;28;20057;-63
2024/01/19 05:09:34;;;;;;;0.55;0.32;;;;;;;16.15;42.38;100988.66;20832006;28;22804;-63
2024/01/19 05:19:36;;;;;;;0.28;0.28;;;;;;;16.11;42.51;101002.44;20854388;28;20057;-63
2024/01/19 05:29:38;;;;;;;0.70;0.50;;;;;;;16.07;42.42;101021.47;20858644;28;20049;-62
2024/01/19 05:39:40;;;;;;;0.57;0.30;;;;;;;16.05;42.19;101036.00;20826813;28;20131;-63
2024/01/19 05:49:42;;;;;;;0.57;0.30;;;;;;;15.98;42.11;101045.50;20807516;28;20049;-64
2024/01/19 05:59:44;;;;;;;0.60;0.30;;;;;;;15.92;42.28;101066.50;20747162;28;20063;-64
2024/01/19 06:09:46;;;;;;;0.43;0.32;;;;;;;15.92;42.41;101085.28;20817780;28;20051;-62
2024/01/19 06:19:47;;;;;;;0.88;0.75;;;;;;;15.90;42.28;101102.47;20810999;28;20099;-63
2024/01/19 06:29:50;;;;;;;1.02;0.30;;;;;;;15.91;42.02;101117.66;20809587;28;20059;-62
2024/01/19 06:39:52;;;;;;;1.05;0.30;;;;;;;15.91;42.16;101155.22;20821198;28;20049;-62
2024/01/19 06:49:54;;;;;;;0.50;0.20;;;;;;;15.83;42.06;101193.38;20825441;28;20049;-62
2024/01/19 06:59:56;;;;;;;1.27;0.57;;;;;;;15.69;42.26;101178.28;20800261;28;20494;-62
2024/01/19 07:09:58;;;;;;;1.77;0.40;;;;;;;15.85;42.28;101207.53;20838817;28;20515;-62
2024/01/19 07:20:00;;;;;;;0.55;0.30;;;;;;;15.86;42.01;101208.38;20836749;28;20053;-62
2024/01/19 07:30:03;;;;;;;1.45;0.40;;;;;;;15.95;42.71;101221.16;20856779;28;20052;-68
2024/01/19 07:40:05;;;;;;;2.33;0.40;;;;;;;16.41;42.48;101229.38;20822993;28;20480;-68
2024/01/19 07:50:10;;;;;;;1.35;0.60;;;;;;;16.66;42.42;101242.59;20842422;28;20053;-70
2024/01/19 08:00:12;;;;;;;2.10;0.50;;;;;;;16.90;42.06;101254.22;20768032;28;20053;-68
2024/01/19 08:10:14;;;;;;;0.77;0.30;;;;;;;16.95;41.82;101244.81;20809748;28;20045;-68
2024/01/19 08:20:17;;;;;;;1.83;0.50;;;;;;;17.22;41.43;101283.97;20799448;28;20069;-69
2024/01/19 08:30:20;;;;;;;2.55;0.45;;;;;;;17.35;41.56;101288.41;20768938;28;20136;-69
2024/01/19 08:40:21;;;;;;;1.38;0.50;;;;;;;17.51;41.33;101288.84;20747035;28;20053;-68
2024/01/19 08:50:24;;;;;;;0.50;0.32;;;;;;;17.60;41.32;101297.16;20818507;28;20068;-68
2024/01/19 09:00:26;;;;;;;1.83;0.50;;;;;;;17.89;41.09;101304.69;20815198;28;20050;-72
2024/01/19 09:10:29;;;;;;;1.38;0.60;;;;;;;18.22;40.57;101324.47;20798558;28;20507;-69
2024/01/19 09:20:31;;;;;;;1.10;0.60;;;;;;;18.48;40.31;101319.59;20829186;28;20138;-70
2024/01/19 09:30:33;;;;;;;4.43;1.25;;;;;;;18.62;40.77;101325.63;20800763;28;20519;-68
2024/01/19 09:40:40;;;;;;;1.02;0.60;;;;;;;18.80;40.53;101342.09;20809632;28;20081;-67
2024/01/19 09:50:46;;;;;;;1.15;0.50;;;;;;;18.93;40.87;101339.19;20813926;28;20049;-68
2024/01/19 10:00:48;;;;;;;2.65;0.52;;;;;;;18.98;40.41;101372.91;20801164;28;20583;-68
2024/01/19 10:10:51;;;;;;;1.83;0.60;;;;;;;19.02;40.57;101375.38;20789933;28;20614;-66
2024/01/19 10:20:53;;;;;;;0.77;0.55;;;;;;;19.09;41.53;101390.88;20797243;28;20045;-67
2024/01/19 10:31:12;;;;;;;1.20;0.60;;;;;;;19.21;41.99;101402.47;20800724;28;20049;-65
2024/01/19 10:41:24;;;;;;;1.27;0.60;;;;;;;19.28;41.75;101417.13;20817656;28;20049;-65
2024/01/19 10:51:29;;;;;;;1.75;0.75;;;;;;;19.38;41.53;101422.59;20817342;28;20049;-65
2024/01/19 11:01:31;;;;;;;3.28;0.80;;;;;;;19.45;41.25;101432.84;20811237;28;20421;-66
2024/01/19 11:11:39;;;;;;;2.45;0.77;;;;;;;20.26;40.33;101423.94;20820188;28;20489;-65
2024/01/19 11:21:41;;;;;;;1.50;0.90;;;;;;;21.18;39.19;101442.66;20820527;28;20048;-66
2024/01/19 11:31:44;;;;;;;1.02;0.60;;;;;;;20.51;40.04;101435.22;20808484;28;20045;-67
2024/01/19 11:41:48;;;;;;;2.83;0.82;;;;;;;20.40;40.28;101447.91;20816576;28;20044;-64
2024/01/19 11:51:50;;;;;;;2.33;0.93;;;;;;;20.10;40.58;101456.91;20823321;28;20049;-65
2024/01/19 12:01:52;;;;;;;1.42;0.70;;;;;;;19.93;40.61;101455.72;20795178;28;20049;-65
2024/01/19 12:11:57;;;;;;;3.53;1.00;;;;;;;19.84;40.76;101450.09;20783565;28;20417;-65
2024/01/19 12:21:59;;;;;;;1.95;0.75;;;;;;;19.81;40.43;101461.19;20791105;28;20048;-66
2024/01/19 12:32:15;;;;;;;1.13;0.50;;;;;;;19.80;40.37;101448.66;20784450;28;20077;-65
2024/01/19 12:42:21;;;;;;;1.52;0.80;;;;;;;19.80;40.45;101462.16;20782409;28;20049;-66
2024/01/19 12:52:24;;;;;;;1.90;1.00;;;;;;;19.76;40.51;101436.41;20801882;28;20049;-64
2024/01/19 13:02:26;;;;;;;1.75;0.60;;;;;;;19.68;40.60;101442.50;20792763;28;20052;-64
2024/01/19 13:12:27;;;;;;;1.23;0.75;;;;;;;19.66;41.19;101439.06;20800550;28;20045;-65
2024/01/19 13:22:30;;;;;;;2.67;0.80;;;;;;;19.66;41.48;101443.63;20803833;28;20052;-64
2024/01/19 13:32:32;;;;;;;1.55;0.60;;;;;;;19.61;41.69;101445.88;20803168;28;20053;-64
2024/01/19 13:42:34;;;;;;;17.90;10.38;;;;;;;19.56;44.24;101465.19;20809215;28;20049;-64
2024/01/19 13:52:38;;;;;;;2.70;2.30;;;;;;;19.57;44.92;101469.59;20795093;28;20049;-63
2024/01/19 14:02:39;;;;;;;2.05;1.42;;;;;;;19.56;44.68;101467.88;20799727;28;20416;-63
2024/01/19 14:12:41;;;;;;;4.15;1.92;;;;;;;19.51;45.63;101465.59;20787441;28;20191;-64
2024/01/19 14:22:43;;;;;;;2.53;1.52;;;;;;;19.46;46.62;101478.66;20801024;28;20163;-64
2024/01/19 14:32:48;;;;;;;3.55;1.70;;;;;;;19.44;46.51;101486.00;20796706;28;20049;-64
2024/01/19 14:42:50;;;;;;;2.77;1.70;;;;;;;19.38;45.95;101483.81;20787582;28;20049;-63
2024/01/19 14:53:01;;;;;;;1.58;0.82;;;;;;;19.39;45.48;101507.13;20798701;28;20057;-63
2024/01/19 15:03:04;;;;;;;2.30;1.00;;;;;;;19.34;45.50;101526.44;20795172;28;20425;-65
2024/01/19 15:13:06;;;;;;;2.08;0.90;;;;;;;19.23;44.87;101519.25;20808261;28;20049;-63
2024/01/19 15:23:31;;;;;;;2.60;0.97;;;;;;;19.20;44.55;101535.72;20807045;28;20046;-64
2024/01/19 15:33:33;;;;;;;2.00;1.00;;;;;;;19.15;44.05;101539.78;20793133;28;20502;-64
2024/01/19 15:43:36;;;;;;;2.60;1.02;;;;;;;19.04;43.91;101535.28;20811682;28;20049;-65
2024/01/19 15:53:41;;;;;;;2.53;1.05;;;;;;;18.96;43.92;101544.00;20812153;28;20057;-64
2024/01/19 16:03:43;;;;;;;2.55;0.82;;;;;;;18.96;44.40;101554.78;20799295;28;20057;-65
2024/01/19 16:13:45;;;;;;;4.05;1.75;;;;;;;18.90;50.57;101569.63;20811777;28;20053;-67
2024/01/19 16:23:47;;;;;;;14.15;4.93;;;;;;;18.76;56.35;101568.06;20807249;28;20041;-66
2024/01/19 16:33:49;;;;;;;8.38;3.45;;;;;;;18.84;55.31;101578.22;20800663;28;20138;-69
2024/01/19 16:43:51;;;;;;;7.30;2.83;;;;;;;18.99;54.63;101593.19;20807687;28;20053;-63
2024/01/19 16:53:55;;;;;;;5.53;2.17;;;;;;;18.87;55.05;101591.47;20799790;28;20135;-62
2024/01/19 17:03:58;;;;;;;5.05;2.10;;;;;;;18.62;56.17;101606.97;20794100;28;20053;-64
2024/01/19 17:14:00;;;;;;;2.63;1.23;;;;;;;18.35;55.55;101613.59;20784760;28;20080;-65
2024/01/19 17:24:03;;;;;;;4.22;1.60;;;;;;;18.32;55.38;101629.13;20799516;28;20049;-64
2024/01/19 17:34:06;;;;;;;2.22;1.10;;;;;;;18.17;54.91;101631.22;20795848;28;20123;-63
2024/01/19 17:44:12;;;;;;;3.45;1.50;;;;;;;18.01;54.14;101640.47;20787291;28;20056;-63
2024/01/19 17:54:14;;;;;;;2.72;1.10;;;;;;;18.04;52.36;101652.88;20797587;28;20521;-63
2024/01/19 18:04:15;;;;;;;2.78;1.15;;;;;;;17.89;51.78;101654.88;20797801;28;20057;-62
2024/01/19 18:14:24;;;;;;;1.08;0.70;;;;;;;17.80;51.40;101665.38;20792924;28;20158;-62
2024/01/19 18:24:26;;;;;;;1.92;1.00;;;;;;;17.67;50.74;101675.34;20784111;28;20497;-64
2024/01/19 18:34:28;;;;;;;4.10;1.00;;;;;;;17.52;50.04;101682.75;20817570;28;20044;-63
2024/01/19 18:44:30;;;;;;;2.58;1.13;;;;;;;17.42;49.65;101706.81;20811476;28;20689;-64
2024/01/19 18:54:32;;;;;;;1.95;1.00;;;;;;;17.38;49.13;101714.25;20809235;28;20456;-64
2024/01/19 19:04:34;;;;;;;1.42;0.85;;;;;;;17.40;48.89;101727.59;20804095;28;20060;-64
2024/01/19 19:14:37;;;;;;;5.35;1.25;;;;;;;17.36;48.35;101743.09;20815361;28;20059;-63
2024/01/19 19:24:39;;;;;;;1.63;0.75;;;;;;;17.33;48.09;101742.47;20813080;28;20045;-63
2024/01/19 19:34:44;;;;;;;2.33;0.90;;;;;;;17.28;47.79;101740.13;20803779;28;20117;-63
2024/01/19 19:44:47;;;;;;;1.30;0.60;;;;;;;17.23;47.61;101751.22;20831931;28;20069;-63
2024/01/19 19:54:48;;;;;;;2.20;0.90;;;;;;;17.14;47.61;101748.34;20809072;28;20099;-63
2024/01/19 20:04:50;;;;;;;3.10;1.70;;;;;;;17.09;47.47;101751.34;20817819;28;20494;-64
2024/01/19 20:14:52;;;;;;;3.70;1.38;;;;;;;16.98;50.84;101751.25;20818686;28;20055;-64
2024/01/19 20:24:54;;;;;;;2.88;1.48;;;;;;;16.97;50.95;101761.13;20799587;28;20743;-65
2024/01/19 20:34:56;;;;;;;2.35;1.10;;;;;;;17.00;50.42;101778.91;20807586;28;20072;-65
2024/01/19 20:44:58;;;;;;;2.58;1.20;;;;;;;16.98;49.91;101775.47;20802926;28;20053;-64
2024/01/19 20:55:00;;;;;;;2.70;1.10;;;;;;;17.03;49.40;101770.63;20817062;28;20053;-63
2024/01/19 21:05:03;;;;;;;2.15;1.00;;;;;;;16.98;48.90;101780.84;20829910;28;20048;-64
2024/01/19 21:15:05;;;;;;;2.47;0.85;;;;;;;16.89;48.41;101791.25;20815430;28;20112;-64
2024/01/19 21:25:08;;;;;;;2.63;1.10;;;;;;;16.85;47.82;101797.84;20828569;28;20059;-64
2024/01/19 21:35:10;;;;;;;1.95;0.95;;;;;;;16.70;47.51;101793.50;20812491;28;20136;-64
2024/01/19 21:45:16;;;;;;;2.28;1.05;;;;;;;16.67;46.97;101800.81;20819327;28;20417;-64
2024/01/19 21:55:19;;;;;;;1.02;0.80;;;;;;;16.71;46.93;101811.34;20821822;28;20050;-64
2024/01/19 22:05:21;;;;;;;1.40;0.80;;;;;;;16.74;46.51;101832.66;20804142;28;20041;-64
2024/01/19 22:15:25;;;;;;;1.63;0.80;;;;;;;16.71;46.01;101838.25;20795913;28;20414;-64
2024/01/19 22:25:26;;;;;;;0.73;0.70;;;;;;;16.70;45.87;101848.16;20792012;28;20106;-64
2024/01/19 22:35:28;;;;;;;1.13;0.80;;;;;;;16.66;45.67;101857.41;20805400;28;20053;-64
2024/01/19 22:45:30;;;;;;;1.55;1.00;;;;;;;16.63;45.51;101874.59;20853216;28;20102;-64
2024/01/19 22:55:32;;;;;;;1.30;1.20;;;;;;;16.60;45.45;101879.34;20842268;28;20111;-64
2024/01/19 23:05:34;;;;;;;2.20;1.45;;;;;;;16.47;45.66;101884.66;20838332;28;20427;-64
2024/01/19 23:15:36;;;;;;;3.42;0.98;;;;;;;16.43;45.28;101893.91;20841885;28;20060;-64
2024/01/19 23:25:38;;;;;;;2.28;1.20;;;;;;;16.38;45.38;101908.50;20812274;28;20069;-64
2024/01/19 23:35:40;;;;;;;2.75;1.10;;;;;;;16.35;45.44;101903.34;20823655;28;20056;-64
2024/01/19 23:45:43;;;;;;;1.90;1.10;;;;;;;16.31;45.21;101920.59;20844749;28;20059;-64
2024/01/19 23:55:44;;;;;;;2.28;1.38;;;;;;;16.29;45.25;101922.53;20849697;28;20057;-64
